Time;durP1;ratioP1;P1;durP2;ratioP2;P2;SDS_P1;SDS_P2;PMS_P1;PMS_P2;Temp;Humidity;BMP_temperature;BMP_pressure;BME280_temperature;BME280_humidity;BME280_pressure;Samples;Min_cycle;Max_cycle;Signal;HPM_P1;HPM_P2
2022/01/04 00:02:03;;;;;;;1.60;1.20;;;8.80;98.20;;;;;;4983031;28;20904;-76
2022/01/04 00:04:30;;;;;;;1.67;1.20;;;8.80;98.20;;;;;;4991657;28;20485;-76
2022/01/04 00:06:58;;;;;;;1.60;1.20;;;8.80;98.20;;;;;;4986559;28;20615;-76
2022/01/04 00:09:26;;;;;;;1.63;1.30;;;8.70;98.20;;;;;;4994159;28;20501;-76
2022/01/04 00:13:21;;;;;;;1.60;1.20;;;8.70;98.20;;;;;;4983284;28;20526;-77
2022/01/04 00:14:47;;;;;;;1.63;1.27;;;8.70;98.20;;;;;;4987884;28;20477;-77
2022/01/04 00:17:14;;;;;;;1.60;1.30;;;8.70;98.20;;;;;;4986306;28;20878;-77
2022/01/04 00:19:41;;;;;;;1.60;1.20;;;8.70;98.20;;;;;;4991471;28;20489;-77
2022/01/04 00:22:08;;;;;;;1.67;1.30;;;8.70;98.20;;;;;;4977521;28;21020;-77
2022/01/04 00:24:36;;;;;;;1.70;1.30;;;8.60;98.20;;;;;;4991473;28;20484;-77
2022/01/04 00:27:04;;;;;;;1.70;1.40;;;8.60;98.20;;;;;;4987388;28;20858;-76
2022/01/04 00:29:31;;;;;;;1.67;1.30;;;8.60;98.20;;;;;;4988575;28;20484;-76
2022/01/04 00:31:57;;;;;;;1.63;1.20;;;8.60;98.20;;;;;;4986343;28;20502;-77
2022/01/04 00:34:25;;;;;;;1.60;1.23;;;8.60;98.20;;;;;;4993236;28;21069;-76
2022/01/04 00:36:51;;;;;;;1.63;1.20;;;8.60;98.20;;;;;;4984913;28;20480;-78
2022/01/04 00:39:18;;;;;;;1.70;1.30;;;8.60;98.20;;;;;;4992627;28;21004;-76
2022/01/04 00:41:47;;;;;;;1.60;1.20;;;8.60;98.20;;;;;;4983239;28;20526;-78
2022/01/04 00:44:14;;;;;;;1.60;1.20;;;8.50;98.20;;;;;;4991257;28;21014;-77
2022/01/04 00:46:41;;;;;;;1.60;1.30;;;8.50;98.20;;;;;;4984953;28;20484;-77
2022/01/04 00:49:11;;;;;;;1.60;1.20;;;8.50;98.20;;;;;;4995561;28;20483;-77
2022/01/04 00:51:39;;;;;;;1.63;1.23;;;8.50;98.20;;;;;;4988607;28;20488;-77
2022/01/04 00:54:06;;;;;;;1.67;1.30;;;8.50;98.20;;;;;;4999559;28;20526;-77
2022/01/04 00:56:34;;;;;;;1.60;1.20;;;8.50;98.20;;;;;;4981700;28;20859;-77
2022/01/04 00:59:02;;;;;;;1.60;1.20;;;8.50;98.20;;;;;;5000288;28;21087;-77
2022/01/04 01:01:29;;;;;;;1.60;1.20;;;8.50;98.20;;;;;;4987228;28;20486;-77
2022/01/04 01:03:56;;;;;;;1.63;1.20;;;8.40;98.20;;;;;;4998743;28;20845;-76
2022/01/04 01:06:23;;;;;;;1.63;1.20;;;8.40;98.20;;;;;;4982215;28;20487;-77
2022/01/04 01:08:50;;;;;;;1.70;1.30;;;8.40;98.20;;;;;;4999311;28;20460;-78
2022/01/04 01:11:17;;;;;;;1.63;1.20;;;8.40;98.20;;;;;;4983868;28;20531;-78
2022/01/04 01:13:45;;;;;;;1.60;1.20;;;8.40;98.20;;;;;;4994514;28;20499;-78
2022/01/04 01:16:13;;;;;;;1.67;1.30;;;8.30;98.20;;;;;;4984892;28;20560;-77
2022/01/04 01:18:40;;;;;;;1.70;1.40;;;8.30;98.20;;;;;;4994560;28;20706;-77
2022/01/04 01:21:08;;;;;;;1.60;1.20;;;8.30;98.20;;;;;;4980757;28;20882;-77
2022/01/04 01:23:36;;;;;;;1.60;1.20;;;8.30;98.20;;;;;;4999819;28;20464;-77
2022/01/04 01:26:04;;;;;;;1.60;1.20;;;8.30;98.20;;;;;;4982211;28;21018;-79
2022/01/04 01:28:32;;;;;;;1.60;1.20;;;8.30;98.20;;;;;;4994413;28;20488;-78
2022/01/04 01:30:59;;;;;;;1.60;1.20;;;8.20;98.20;;;;;;4984117;28;20547;-80
2022/01/04 01:33:28;;;;;;;1.60;1.20;;;8.20;98.20;;;;;;5002327;28;20465;-82
2022/01/04 01:35:56;;;;;;;1.60;1.20;;;8.20;98.20;;;;;;4981992;28;20890;-79
2022/01/04 01:38:23;;;;;;;1.60;1.20;;;8.20;98.20;;;;;;4999902;28;20612;-79
2022/01/04 01:40:52;;;;;;;1.60;1.17;;;8.20;98.20;;;;;;4983341;28;20472;-81
2022/01/04 01:43:19;;;;;;;1.60;1.20;;;8.20;98.20;;;;;;5005368;28;20465;-80
2022/01/04 01:45:47;;;;;;;1.70;1.40;;;8.20;98.20;;;;;;4991953;28;20484;-82
2022/01/04 01:48:14;;;;;;;1.63;1.30;;;8.20;98.20;;;;;;4980714;28;20797;-78
2022/01/04 01:50:43;;;;;;;1.70;1.40;;;8.20;98.20;;;;;;4991958;28;20472;-80
2022/01/04 01:53:10;;;;;;;1.60;1.20;;;8.20;98.20;;;;;;4999213;28;20572;-80
2022/01/04 01:55:37;;;;;;;1.60;1.30;;;8.20;98.20;;;;;;4990960;28;20524;-82
2022/01/04 01:58:05;;;;;;;1.60;1.20;;;8.20;98.20;;;;;;4995767;28;20512;-78
2022/01/04 02:00:32;;;;;;;1.63;1.20;;;8.10;98.20;;;;;;4985810;28;20536;-81
2022/01/04 02:03:01;;;;;;;1.67;1.30;;;8.10;98.20;;;;;;4982240;28;20543;-78
2022/01/04 02:05:28;;;;;;;1.60;1.30;;;8.10;98.20;;;;;;4996125;28;20481;-81
2022/01/04 02:07:58;;;;;;;1.63;1.30;;;8.10;98.20;;;;;;4999101;28;20558;-81
2022/01/04 02:10:25;;;;;;;1.63;1.20;;;8.10;98.20;;;;;;4992848;28;20521;-79
2022/01/04 02:12:54;;;;;;;1.63;1.20;;;8.10;98.20;;;;;;4998085;28;20487;-83
2022/01/04 02:15:22;;;;;;;1.60;1.30;;;8.10;98.20;;;;;;4993587;28;20862;-80
2022/01/04 02:17:50;;;;;;;1.60;1.20;;;8.10;98.20;;;;;;4988150;28;20548;-78
2022/01/04 02:20:20;;;;;;;1.60;1.20;;;8.10;98.20;;;;;;4996048;28;20489;-80
2022/01/04 02:22:47;;;;;;;1.70;1.27;;;8.10;98.20;;;;;;4990000;28;20575;-78
2022/01/04 02:25:14;;;;;;;1.67;1.30;;;8.10;98.20;;;;;;4993000;28;20494;-79
2022/01/04 02:27:42;;;;;;;1.63;1.20;;;8.10;98.20;;;;;;4991727;28;20492;-80
2022/01/04 02:30:14;;;;;;;1.63;1.23;;;8.10;98.20;;;;;;4988592;28;20988;-81
2022/01/04 02:32:41;;;;;;;1.63;1.30;;;8.00;98.20;;;;;;4990384;28;21083;-83
2022/01/04 02:35:09;;;;;;;1.60;1.20;;;8.00;98.20;;;;;;4992521;28;20513;-84
2022/01/04 02:37:37;;;;;;;1.60;1.30;;;8.00;98.20;;;;;;4985613;28;20491;-79
2022/01/04 02:40:06;;;;;;;1.60;1.20;;;8.00;98.20;;;;;;4989125;28;20584;-82
2022/01/04 02:42:33;;;;;;;1.70;1.40;;;8.00;98.20;;;;;;4995406;28;20516;-80
2022/01/04 02:45:00;;;;;;;1.60;1.23;;;8.10;98.20;;;;;;4995637;28;20562;-78
2022/01/04 02:47:28;;;;;;;1.60;1.20;;;8.10;98.20;;;;;;4991296;28;20498;-82
2022/01/04 02:49:55;;;;;;;1.60;1.30;;;8.00;98.20;;;;;;4995880;28;20495;-79
2022/01/04 02:52:22;;;;;;;1.63;1.30;;;8.00;98.20;;;;;;4994040;28;20506;-82
2022/01/04 02:54:50;;;;;;;1.70;1.30;;;8.00;98.20;;;;;;4996163;28;20537;-80
2022/01/04 02:57:17;;;;;;;1.60;1.27;;;8.00;98.20;;;;;;4993288;28;20495;-81
2022/01/04 02:59:44;;;;;;;1.67;1.30;;;8.00;98.20;;;;;;4998249;28;20488;-82
2022/01/04 03:02:11;;;;;;;1.60;1.20;;;8.00;98.20;;;;;;4986415;28;20485;-79
2022/01/04 03:04:38;;;;;;;1.70;1.30;;;8.00;98.20;;;;;;4992545;28;20849;-84
2022/01/04 03:07:05;;;;;;;1.70;1.30;;;8.00;98.20;;;;;;4983899;28;20499;-82
2022/01/04 03:09:32;;;;;;;1.63;1.27;;;8.00;98.20;;;;;;4992459;28;20457;-81
2022/01/04 03:12:00;;;;;;;1.67;1.30;;;8.00;98.20;;;;;;4987168;28;20480;-82
2022/01/04 03:14:27;;;;;;;1.70;1.30;;;8.00;98.20;;;;;;4995873;28;20796;-78
2022/01/04 03:16:54;;;;;;;1.60;1.20;;;8.00;98.20;;;;;;4990547;28;20561;-84
2022/01/04 03:19:21;;;;;;;1.70;1.30;;;8.00;98.20;;;;;;4998390;28;20567;-80
2022/01/04 03:21:48;;;;;;;1.60;1.20;;;8.00;98.20;;;;;;4990591;28;20487;-82
2022/01/04 03:24:17;;;;;;;1.70;1.30;;;8.00;98.20;;;;;;4995905;28;20571;-79
2022/01/04 03:26:44;;;;;;;1.70;1.30;;;8.00;98.20;;;;;;4987770;28;20847;-82
2022/01/04 03:29:14;;;;;;;1.70;1.40;;;8.00;98.20;;;;;;5001630;28;20484;-84
2022/01/04 03:31:42;;;;;;;1.70;1.40;;;8.00;98.20;;;;;;4990120;28;20488;-79
2022/01/04 03:34:10;;;;;;;1.60;1.20;;;8.00;98.20;;;;;;4999059;28;20544;-83
2022/01/04 03:36:37;;;;;;;1.60;1.20;;;8.10;98.20;;;;;;4990711;28;20884;-80
2022/01/04 03:39:06;;;;;;;1.70;1.40;;;8.10;98.20;;;;;;4998643;28;20836;-80
2022/01/04 03:41:37;;;;;;;1.70;1.30;;;8.10;98.20;;;;;;4985692;28;20555;-81
2022/01/04 03:44:05;;;;;;;1.67;1.23;;;8.00;98.20;;;;;;4995453;28;20465;-79
2022/01/04 03:46:34;;;;;;;1.60;1.30;;;8.00;98.20;;;;;;4980734;28;20616;-81
2022/01/04 03:49:01;;;;;;;1.60;1.30;;;8.00;98.20;;;;;;5002345;28;20560;-80
2022/01/04 03:51:28;;;;;;;1.63;1.30;;;8.00;98.20;;;;;;4989019;28;20484;-79
2022/01/04 03:53:55;;;;;;;1.63;1.20;;;8.00;98.20;;;;;;4998766;28;20461;-87
2022/01/04 03:56:22;;;;;;;1.70;1.40;;;8.00;98.20;;;;;;4986495;28;20921;-79
2022/01/04 03:58:49;;;;;;;1.70;1.30;;;8.00;98.20;;;;;;4998689;28;21170;-80
2022/01/04 04:01:16;;;;;;;1.60;1.30;;;8.00;98.20;;;;;;4987666;28;20545;-80
2022/01/04 04:03:44;;;;;;;1.67;1.27;;;8.00;98.20;;;;;;5000417;28;20500;-80
2022/01/04 04:06:11;;;;;;;1.60;1.20;;;8.00;98.20;;;;;;4988247;28;20484;-81
2022/01/04 04:08:39;;;;;;;1.70;1.40;;;8.00;98.20;;;;;;4998130;28;20469;-81
2022/01/04 04:11:06;;;;;;;1.70;1.37;;;8.00;98.20;;;;;;4990705;28;20516;-83
2022/01/04 04:13:33;;;;;;;1.70;1.40;;;8.00;98.20;;;;;;5009066;28;20468;-81
2022/01/04 04:16:00;;;;;;;1.60;1.30;;;8.00;98.20;;;;;;4984175;28;20481;-79
2022/01/04 04:18:27;;;;;;;1.67;1.37;;;8.00;98.20;;;;;;5001817;28;20815;-82
2022/01/04 04:20:55;;;;;;;1.67;1.27;;;8.00;98.20;;;;;;4986031;28;20584;-85
2022/01/04 04:23:22;;;;;;;1.60;1.20;;;8.00;98.20;;;;;;5004063;28;20536;-82
2022/01/04 04:25:49;;;;;;;1.60;1.20;;;8.00;98.20;;;;;;4986446;28;20559;-83
2022/01/04 04:28:16;;;;;;;1.60;1.20;;;8.00;98.20;;;;;;5003902;28;20527;-80
2022/01/04 04:30:43;;;;;;;1.70;1.40;;;8.00;98.20;;;;;;4995491;28;20475;-81
2022/01/04 04:33:10;;;;;;;1.67;1.30;;;8.00;98.20;;;;;;4997294;28;20912;-80
2022/01/04 04:35:37;;;;;;;1.60;1.30;;;8.00;98.20;;;;;;4995788;28;20488;-86
2022/01/04 04:38:07;;;;;;;1.60;1.23;;;8.00;98.20;;;;;;4995298;28;20481;-84
2022/01/04 04:40:34;;;;;;;1.60;1.20;;;8.00;98.20;;;;;;4996495;28;20489;-82
2022/01/04 04:43:01;;;;;;;1.60;1.20;;;8.00;98.20;;;;;;4998147;28;20492;-79
2022/01/04 04:45:28;;;;;;;1.67;1.20;;;8.00;98.20;;;;;;4995843;28;20523;-80
2022/01/04 04:47:56;;;;;;;1.67;1.30;;;8.00;98.20;;;;;;4991110;28;20489;-79
2022/01/04 04:50:22;;;;;;;1.60;1.27;;;8.00;98.20;;;;;;4992709;28;20560;-79
2022/01/04 04:52:49;;;;;;;1.60;1.23;;;8.00;98.20;;;;;;4996821;28;21011;-79
2022/01/04 04:55:18;;;;;;;1.70;1.30;;;8.00;98.20;;;;;;4992119;28;20489;-80
2022/01/04 04:57:45;;;;;;;1.60;1.20;;;7.90;98.20;;;;;;4996079;28;20503;-79
2022/01/04 05:00:13;;;;;;;1.63;1.20;;;7.90;98.20;;;;;;4995187;28;20529;-80
2022/01/04 05:02:40;;;;;;;1.63;1.20;;;7.90;98.20;;;;;;4988350;28;20729;-77
2022/01/04 05:05:08;;;;;;;1.60;1.20;;;7.90;98.20;;;;;;4995467;28;20485;-83
2022/01/04 05:07:35;;;;;;;1.67;1.20;;;7.90;98.20;;;;;;4996652;28;20492;-80
2022/01/04 05:10:04;;;;;;;1.60;1.20;;;7.90;98.20;;;;;;4994775;28;20465;-84
2022/01/04 05:12:32;;;;;;;1.60;1.30;;;7.90;98.20;;;;;;4994980;28;20571;-82
2022/01/04 05:14:59;;;;;;;1.60;1.20;;;7.90;98.20;;;;;;4992472;28;20539;-81
2022/01/04 05:17:26;;;;;;;1.67;1.30;;;7.90;98.20;;;;;;4995041;28;20484;-80
2022/01/04 05:19:53;;;;;;;1.67;1.30;;;7.90;98.20;;;;;;4994777;28;20489;-81
2022/01/04 05:22:20;;;;;;;1.60;1.30;;;7.90;98.20;;;;;;4995855;28;20491;-82
2022/01/04 05:24:47;;;;;;;1.63;1.30;;;7.90;98.20;;;;;;4997599;28;20488;-80
2022/01/04 05:27:13;;;;;;;1.63;1.20;;;7.90;98.20;;;;;;4992844;28;20782;-80
2022/01/04 05:29:42;;;;;;;1.67;1.30;;;7.90;98.20;;;;;;4996105;28;20965;-81
2022/01/04 05:32:09;;;;;;;1.60;1.20;;;7.90;98.20;;;;;;4994613;28;20522;-82
2022/01/04 05:34:38;;;;;;;1.70;1.30;;;8.00;98.20;;;;;;4998498;28;20484;-85
2022/01/04 05:37:06;;;;;;;1.60;1.20;;;8.00;98.20;;;;;;4996483;28;20520;-80
2022/01/04 05:39:32;;;;;;;1.60;1.20;;;8.00;98.20;;;;;;5001907;28;21019;-85
2022/01/04 05:41:59;;;;;;;1.60;1.20;;;8.00;98.20;;;;;;4992445;28;20477;-88
2022/01/04 05:44:26;;;;;;;1.60;1.20;;;8.00;98.20;;;;;;5003756;28;20600;-82
2022/01/04 05:46:55;;;;;;;1.63;1.20;;;8.00;98.20;;;;;;4982113;28;20508;-80
2022/01/04 05:49:21;;;;;;;1.70;1.33;;;8.00;98.20;;;;;;4993213;28;20489;-80
2022/01/04 05:51:48;;;;;;;1.70;1.33;;;7.90;98.20;;;;;;4992410;28;21070;-79
2022/01/04 05:54:15;;;;;;;1.67;1.30;;;8.00;98.20;;;;;;4999795;28;20736;-80
2022/01/04 05:56:42;;;;;;;1.60;1.20;;;8.00;98.20;;;;;;4985095;28;20480;-78
2022/01/04 05:59:09;;;;;;;1.60;1.27;;;8.00;98.20;;;;;;4997124;28;20461;-79
2022/01/04 06:01:36;;;;;;;1.60;1.20;;;8.00;98.20;;;;;;4985871;28;20496;-79
2022/01/04 06:04:04;;;;;;;1.60;1.20;;;8.00;98.20;;;;;;4998844;28;20643;-79
2022/01/04 06:06:31;;;;;;;1.67;1.27;;;7.90;98.20;;;;;;4986407;28;20484;-80
2022/01/04 06:08:59;;;;;;;1.63;1.30;;;8.00;98.20;;;;;;4997652;28;20968;-79
2022/01/04 06:11:45;;;;;;;1.60;1.20;;;8.00;98.20;;;;;;4985748;28;20524;-79
2022/01/04 06:16:57;;;;;;;1.70;1.30;;;8.00;98.20;;;;;;4985919;28;20538;-78
2022/01/04 06:19:26;;;;;;;1.63;1.27;;;8.00;98.20;;;;;;4994193;28;20469;-77
2022/01/04 06:21:53;;;;;;;1.60;1.20;;;8.00;98.20;;;;;;4986517;28;20527;-77
2022/01/04 06:24:20;;;;;;;1.70;1.40;;;7.90;98.20;;;;;;4990312;28;20492;-78
2022/01/04 06:26:47;;;;;;;1.60;1.20;;;8.00;98.20;;;;;;4983829;28;20512;-77
2022/01/04 06:29:15;;;;;;;1.70;1.40;;;8.00;98.20;;;;;;4996241;28;20465;-77
2022/01/04 06:31:42;;;;;;;1.60;1.20;;;8.00;98.20;;;;;;4985726;28;20491;-78
2022/01/04 06:34:09;;;;;;;1.70;1.30;;;8.00;98.20;;;;;;4994703;28;20560;-77
2022/01/04 06:36:37;;;;;;;1.67;1.30;;;7.90;98.20;;;;;;4986685;28;20501;-79
2022/01/04 06:39:05;;;;;;;1.63;1.20;;;7.90;98.20;;;;;;4991234;28;20492;-79
2022/01/04 06:41:32;;;;;;;1.60;1.30;;;7.90;98.20;;;;;;4983859;28;20485;-78
2022/01/04 06:43:59;;;;;;;1.67;1.30;;;7.90;98.20;;;;;;4994429;28;20985;-78
2022/01/04 06:46:26;;;;;;;1.60;1.20;;;7.90;98.20;;;;;;4979717;28;20508;-79
2022/01/04 06:48:53;;;;;;;1.60;1.20;;;7.90;98.20;;;;;;4998208;28;20470;-78
2022/01/04 06:51:20;;;;;;;1.63;1.30;;;7.90;98.20;;;;;;4982604;28;20475;-78
2022/01/04 06:53:48;;;;;;;1.63;1.30;;;7.90;98.20;;;;;;4999789;28;20928;-78
2022/01/04 06:56:15;;;;;;;1.63;1.23;;;7.90;98.20;;;;;;4980954;28;20487;-77
2022/01/04 06:58:42;;;;;;;1.60;1.20;;;7.80;98.20;;;;;;5003352;28;20469;-77
2022/01/04 07:01:09;;;;;;;1.67;1.33;;;7.80;98.20;;;;;;4979508;28;20533;-79
2022/01/04 07:03:36;;;;;;;1.63;1.20;;;7.80;98.20;;;;;;5001161;28;20575;-81
2022/01/04 07:06:03;;;;;;;1.60;1.20;;;7.80;98.20;;;;;;4979925;28;20572;-81
2022/01/04 07:08:30;;;;;;;1.60;1.30;;;7.80;98.20;;;;;;4997869;28;20469;-78
2022/01/04 07:10:58;;;;;;;1.60;1.20;;;7.80;98.20;;;;;;4977426;28;20462;-78
2022/01/04 07:13:25;;;;;;;1.60;1.20;;;7.70;98.20;;;;;;4997511;28;20483;-78
2022/01/04 07:15:52;;;;;;;1.60;1.20;;;7.70;98.20;;;;;;4980130;28;20484;-79
2022/01/04 07:18:20;;;;;;;1.63;1.20;;;7.70;98.20;;;;;;4998369;28;21004;-77
2022/01/04 07:20:47;;;;;;;1.67;1.30;;;7.70;98.20;;;;;;4989548;28;20484;-78
2022/01/04 07:23:14;;;;;;;1.60;1.20;;;7.80;98.20;;;;;;4956477;28;20484;-84
2022/01/04 07:25:41;;;;;;;1.60;1.20;;;7.80;98.20;;;;;;4961566;28;20490;-78
2022/01/04 07:28:09;;;;;;;1.63;1.20;;;7.80;98.20;;;;;;4974363;28;20563;-81
2022/01/04 07:30:36;;;;;;;1.60;1.20;;;7.80;98.20;;;;;;4972351;28;20472;-79
2022/01/04 07:33:03;;;;;;;1.60;1.20;;;7.80;98.20;;;;;;4969889;28;20517;-78
2022/01/04 07:35:30;;;;;;;1.63;1.20;;;7.90;98.20;;;;;;4969061;28;20561;-78
2022/01/04 07:37:57;;;;;;;1.60;1.20;;;7.90;98.20;;;;;;4967614;28;20482;-77
2022/01/04 07:40:24;;;;;;;1.60;1.20;;;7.90;98.20;;;;;;4990010;28;21005;-79
2022/01/04 07:42:59;;;;;;;1.63;1.30;;;7.90;98.20;;;;;;4991877;28;20487;-78
2022/01/04 07:45:28;;;;;;;1.60;1.30;;;7.90;98.20;;;;;;4987636;28;20552;-79
2022/01/04 07:47:55;;;;;;;1.60;1.30;;;7.80;98.20;;;;;;4988906;28;20563;-80
2022/01/04 07:50:23;;;;;;;1.60;1.20;;;7.80;98.20;;;;;;4988083;28;20465;-77
2022/01/04 07:52:50;;;;;;;1.60;1.27;;;7.80;98.20;;;;;;4994039;28;20492;-77
2022/01/04 07:55:17;;;;;;;1.70;1.40;;;7.90;98.20;;;;;;4988289;28;20488;-77
2022/01/04 07:57:45;;;;;;;1.60;1.27;;;7.90;98.20;;;;;;4991178;28;20492;-76
2022/01/04 08:00:13;;;;;;;1.60;1.30;;;7.80;98.20;;;;;;4988633;28;20465;-76
2022/01/04 08:02:42;;;;;;;1.67;1.30;;;7.80;98.20;;;;;;4981689;28;20571;-76
2022/01/04 08:05:10;;;;;;;1.60;1.30;;;7.80;98.20;;;;;;4988842;28;20484;-78
2022/01/04 08:07:37;;;;;;;1.70;1.40;;;7.80;98.20;;;;;;4992144;28;20491;-80
2022/01/04 08:10:04;;;;;;;1.63;1.30;;;7.80;98.20;;;;;;4987675;28;20551;-78
2022/01/04 08:12:31;;;;;;;1.63;1.30;;;7.80;98.20;;;;;;4990692;28;21026;-79
2022/01/04 08:14:59;;;;;;;1.70;1.50;;;7.80;98.20;;;;;;4990304;28;21005;-76
2022/01/04 08:17:26;;;;;;;1.70;1.30;;;7.70;98.20;;;;;;4988566;28;20484;-77
2022/01/04 08:19:54;;;;;;;1.63;1.30;;;7.70;98.20;;;;;;4989657;28;20531;-76
2022/01/04 08:22:21;;;;;;;1.60;1.20;;;7.70;98.20;;;;;;4987159;28;20480;-77
2022/01/04 08:24:47;;;;;;;1.63;1.20;;;7.70;98.20;;;;;;4986464;28;20584;-78
2022/01/04 08:27:15;;;;;;;1.60;1.30;;;7.70;98.20;;;;;;4969091;28;20488;-77
2022/01/04 08:29:42;;;;;;;1.70;1.30;;;7.70;98.20;;;;;;4984763;28;20524;-77
2022/01/04 08:32:09;;;;;;;1.70;1.30;;;7.70;98.20;;;;;;4984404;28;20571;-76
2022/01/04 08:34:36;;;;;;;1.67;1.30;;;7.70;98.20;;;;;;4988885;28;21072;-77
2022/01/04 08:37:05;;;;;;;1.70;1.40;;;7.70;98.20;;;;;;4981962;28;20539;-77
2022/01/04 08:39:32;;;;;;;1.63;1.30;;;7.80;98.20;;;;;;4991685;28;20802;-78
2022/01/04 08:42:01;;;;;;;1.60;1.20;;;7.80;98.20;;;;;;4984237;28;20484;-79
2022/01/04 08:44:28;;;;;;;1.70;1.40;;;7.80;98.20;;;;;;4993094;28;20491;-78
2022/01/04 08:46:55;;;;;;;1.63;1.30;;;7.90;98.20;;;;;;4984415;28;20488;-76
2022/01/04 08:49:22;;;;;;;1.63;1.20;;;7.90;98.20;;;;;;4994420;28;20555;-79
2022/01/04 08:51:49;;;;;;;1.60;1.30;;;7.90;98.20;;;;;;4983751;28;20475;-79
2022/01/04 08:54:18;;;;;;;1.63;1.27;;;7.90;98.20;;;;;;4992001;28;20523;-79
2022/01/04 08:56:45;;;;;;;1.67;1.37;;;7.90;98.20;;;;;;4983538;28;20587;-83
2022/01/04 08:59:13;;;;;;;1.67;1.30;;;7.90;98.20;;;;;;4992257;28;20480;-82
2022/01/04 09:01:41;;;;;;;1.60;1.20;;;7.90;98.20;;;;;;4982318;28;20976;-84
2022/01/04 09:04:08;;;;;;;1.60;1.20;;;7.90;98.20;;;;;;4987318;28;20469;-79
2022/01/04 09:06:35;;;;;;;1.60;1.23;;;7.90;98.20;;;;;;4982926;28;20927;-80
2022/01/04 09:09:02;;;;;;;1.70;1.40;;;8.00;98.20;;;;;;4996930;28;20476;-76
2022/01/04 09:11:31;;;;;;;1.63;1.30;;;8.00;98.20;;;;;;4983879;28;20508;-78
2022/01/04 09:14:16;;;;;;;1.70;1.30;;;8.00;98.20;;;;;;5001201;28;20560;-76
2022/01/04 09:19:29;;;;;;;1.70;1.30;;;8.10;98.20;;;;;;4991199;28;20448;-80
2022/01/04 09:21:57;;;;;;;1.60;1.20;;;8.10;98.20;;;;;;4987197;28;20869;-76
2022/01/04 09:24:24;;;;;;;1.70;1.37;;;8.10;98.20;;;;;;4996382;28;20477;-82
2022/01/04 09:26:53;;;;;;;1.63;1.23;;;8.10;98.20;;;;;;4984843;28;20874;-81
2022/01/04 09:29:20;;;;;;;1.60;1.20;;;8.00;98.20;;;;;;4995808;28;20700;-81
2022/01/04 09:31:48;;;;;;;1.70;1.27;;;8.00;98.20;;;;;;4987728;28;20492;-77
2022/01/04 09:34:16;;;;;;;1.70;1.30;;;8.00;98.20;;;;;;4998301;28;20989;-78
2022/01/04 09:36:44;;;;;;;1.60;1.20;;;8.00;98.20;;;;;;4981817;28;20476;-78
2022/01/04 09:39:12;;;;;;;2.47;2.27;;;8.10;98.20;;;;;;4994801;28;20491;-79
2022/01/04 09:41:40;;;;;;;1.67;1.20;;;8.10;98.20;;;;;;4983430;28;20483;-79
2022/01/04 09:44:09;;;;;;;1.63;1.30;;;8.20;98.20;;;;;;4992338;28;20463;-79
2022/01/04 09:46:36;;;;;;;1.70;1.30;;;8.20;98.20;;;;;;4983833;28;20565;-78
2022/01/04 09:49:03;;;;;;;1.60;1.20;;;8.20;98.20;;;;;;4995512;28;20540;-78
2022/01/04 09:51:32;;;;;;;1.67;1.23;;;8.20;98.20;;;;;;4983222;28;20481;-80
2022/01/04 09:53:59;;;;;;;1.63;1.20;;;8.30;98.20;;;;;;4999306;28;20465;-80
2022/01/04 09:56:26;;;;;;;1.70;1.40;;;8.30;98.20;;;;;;4983384;28;20495;-78
2022/01/04 09:58:53;;;;;;;1.67;1.30;;;8.30;98.20;;;;;;5002705;28;20465;-82
2022/01/04 10:01:26;;;;;;;1.60;1.20;;;8.30;98.20;;;;;;4989346;28;20873;-80
2022/01/04 10:03:53;;;;;;;1.60;1.20;;;8.30;98.20;;;;;;4995537;28;20461;-80
2022/01/04 10:06:20;;;;;;;1.63;1.20;;;8.40;98.20;;;;;;4992124;28;21020;-81
2022/01/04 10:08:52;;;;;;;1.63;1.20;;;8.40;98.20;;;;;;5005203;28;20497;-79
2022/01/04 10:11:30;;;;;;;1.60;1.20;;;8.40;98.20;;;;;;4985731;28;20564;-81
2022/01/04 10:13:57;;;;;;;1.67;1.30;;;8.40;98.20;;;;;;4998088;28;20461;-83
2022/01/04 10:16:26;;;;;;;1.63;1.30;;;8.40;98.20;;;;;;4984407;28;20571;-78
2022/01/04 10:18:53;;;;;;;1.70;1.37;;;8.40;98.20;;;;;;5001363;28;20463;-77
2022/01/04 10:21:21;;;;;;;1.70;1.30;;;8.40;98.20;;;;;;4981752;28;20490;-77
2022/01/04 10:23:57;;;;;;;1.70;1.37;;;8.40;98.20;;;;;;4998418;28;20910;-78
2022/01/04 10:26:35;;;;;;;1.60;1.20;;;8.40;98.20;;;;;;4983398;28;20853;-78
2022/01/04 10:29:18;;;;;;;1.60;1.20;;;8.40;98.20;;;;;;4994175;28;20496;-77
2022/01/04 10:31:47;;;;;;;1.70;1.30;;;8.40;98.20;;;;;;4985176;28;20886;-82
2022/01/04 10:34:14;;;;;;;1.60;1.20;;;8.40;98.20;;;;;;4997393;28;20552;-80
2022/01/04 10:36:41;;;;;;;1.60;1.20;;;8.40;98.20;;;;;;4986967;28;20486;-80
2022/01/04 10:39:09;;;;;;;1.63;1.23;;;8.40;98.20;;;;;;4998865;28;20540;-79
2022/01/04 10:41:36;;;;;;;1.70;1.30;;;8.30;98.20;;;;;;4985376;28;20530;-79
2022/01/04 10:44:07;;;;;;;1.60;1.20;;;8.40;98.20;;;;;;4993314;28;20465;-77
2022/01/04 10:46:36;;;;;;;1.63;1.30;;;8.30;98.20;;;;;;4981107;28;20479;-81
2022/01/04 10:49:16;;;;;;;1.60;1.20;;;8.30;98.20;;;;;;4991489;28;20480;-77
2022/01/04 10:51:43;;;;;;;1.67;1.20;;;8.30;98.20;;;;;;4980687;28;20510;-78
2022/01/04 10:54:17;;;;;;;1.60;1.20;;;8.30;98.20;;;;;;4992615;28;21014;-79
2022/01/04 10:56:46;;;;;;;1.60;1.17;;;8.30;98.20;;;;;;4985487;28;20540;-80
2022/01/04 10:59:14;;;;;;;1.60;1.20;;;8.30;98.20;;;;;;4996435;28;20531;-78
2022/01/04 11:01:43;;;;;;;1.60;1.20;;;8.30;98.20;;;;;;4986057;28;20480;-81
2022/01/04 11:04:15;;;;;;;1.63;1.20;;;8.30;98.20;;;;;;4997113;28;20497;-79
2022/01/04 11:06:43;;;;;;;1.70;1.30;;;8.30;98.20;;;;;;4986158;28;20874;-78
2022/01/04 11:09:11;;;;;;;1.63;1.30;;;8.30;98.20;;;;;;4995718;28;20544;-80
2022/01/04 11:11:38;;;;;;;1.67;1.30;;;8.30;98.20;;;;;;4984145;28;21039;-80
2022/01/04 11:14:05;;;;;;;1.63;1.20;;;8.30;98.20;;;;;;4996489;28;20552;-82
2022/01/04 11:16:32;;;;;;;1.70;1.27;;;8.40;98.20;;;;;;4985705;28;20487;-80
2022/01/04 11:19:02;;;;;;;1.63;1.20;;;8.40;98.20;;;;;;4995686;28;20461;-80
2022/01/04 11:21:33;;;;;;;1.60;1.20;;;8.40;98.20;;;;;;4984999;28;21041;-79
2022/01/04 11:24:03;;;;;;;1.60;1.20;;;8.40;98.20;;;;;;4995174;28;20468;-83
2022/01/04 11:26:31;;;;;;;1.60;1.20;;;8.40;98.20;;;;;;4986999;28;20898;-80
2022/01/04 11:28:59;;;;;;;1.67;1.30;;;8.40;98.20;;;;;;4993797;28;20972;-81
2022/01/04 11:31:36;;;;;;;1.70;1.30;;;8.40;98.20;;;;;;4982674;28;20487;-81
2022/01/04 11:34:12;;;;;;;1.60;1.20;;;8.50;98.20;;;;;;4994257;28;20465;-81
2022/01/04 11:36:42;;;;;;;1.70;1.40;;;8.40;98.20;;;;;;4985061;28;20530;-79
2022/01/04 11:39:34;;;;;;;1.60;1.20;;;8.40;98.20;;;;;;4992470;28;20465;-79
2022/01/04 11:42:04;;;;;;;1.60;1.20;;;8.40;98.20;;;;;;4982817;28;20857;-83
2022/01/04 11:44:32;;;;;;;1.70;1.40;;;8.50;98.20;;;;;;4992650;28;21040;-79
2022/01/04 11:47:02;;;;;;;1.67;1.30;;;8.50;98.20;;;;;;4981661;28;20485;-81
2022/01/04 11:49:30;;;;;;;1.67;1.20;;;8.50;98.20;;;;;;4990751;28;20961;-81
2022/01/04 11:51:58;;;;;;;1.60;1.30;;;8.50;98.20;;;;;;4985054;28;20512;-81
2022/01/04 11:54:27;;;;;;;1.63;1.20;;;8.50;98.20;;;;;;4994547;28;20576;-84
2022/01/04 11:56:57;;;;;;;1.70;1.30;;;8.60;98.20;;;;;;4981982;28;20476;-87
2022/01/04 11:59:26;;;;;;;1.70;1.30;;;8.60;98.20;;;;;;4996492;28;20461;-79
2022/01/04 12:01:55;;;;;;;1.60;1.20;;;8.70;98.20;;;;;;4979628;28;20845;-81
2022/01/04 12:04:49;;;;;;;1.67;1.27;;;8.70;98.20;;;;;;4993157;28;20564;-80
2022/01/04 12:07:46;;;;;;;1.70;1.30;;;8.70;98.20;;;;;;4988623;28;21011;-83
2022/01/04 12:10:47;;;;;;;1.70;1.30;;;8.80;98.20;;;;;;4980608;28;21065;-83
2022/01/04 12:13:16;;;;;;;1.70;1.30;;;8.80;98.20;;;;;;4969346;28;20477;-81
2022/01/04 12:15:59;;;;;;;1.67;1.20;;;8.80;98.20;;;;;;4984764;28;20499;-81
2022/01/04 12:19:01;;;;;;;1.67;1.30;;;8.80;98.20;;;;;;4976237;28;20481;-85
2022/01/04 12:21:40;;;;;;;1.60;1.17;;;8.80;98.20;;;;;;4977222;28;20474;-81
2022/01/04 12:24:11;;;;;;;1.63;1.20;;;8.80;98.20;;;;;;4994528;28;20460;-83
2022/01/04 12:26:40;;;;;;;1.60;1.20;;;8.80;98.20;;;;;;4984108;28;20570;-81
2022/01/04 12:29:25;;;;;;;1.60;1.20;;;8.80;98.20;;;;;;4995292;28;20523;-82
2022/01/04 12:31:55;;;;;;;1.70;1.23;;;8.80;98.20;;;;;;4984238;28;21007;-84
2022/01/04 12:34:32;;;;;;;1.63;1.20;;;8.80;98.20;;;;;;4992429;28;20484;-81
2022/01/04 12:37:00;;;;;;;1.67;1.20;;;8.80;98.20;;;;;;4986486;28;20475;-84
2022/01/04 12:39:35;;;;;;;1.67;1.30;;;8.80;98.20;;;;;;4993316;28;20881;-81
2022/01/04 12:42:03;;;;;;;1.70;1.23;;;8.80;98.20;;;;;;4987057;28;20492;-83
2022/01/04 12:44:31;;;;;;;1.70;1.30;;;8.80;98.20;;;;;;4990826;28;20857;-81
2022/01/04 12:46:59;;;;;;;1.67;1.30;;;8.80;98.20;;;;;;4990362;28;20520;-82
2022/01/04 12:49:30;;;;;;;1.63;1.27;;;8.80;98.20;;;;;;4996366;28;20468;-85
2022/01/04 12:51:59;;;;;;;1.60;1.20;;;8.80;98.20;;;;;;4990454;28;20555;-84
2022/01/04 12:54:28;;;;;;;1.60;1.20;;;8.80;98.20;;;;;;4992572;28;20485;-83
2022/01/04 12:56:59;;;;;;;1.63;1.20;;;8.80;98.20;;;;;;4984764;28;20487;-83
2022/01/04 12:59:37;;;;;;;1.63;1.20;;;8.90;98.20;;;;;;4998986;28;20474;-84
2022/01/04 13:02:10;;;;;;;1.60;1.20;;;8.90;98.20;;;;;;4985768;28;20632;-84
2022/01/04 13:04:38;;;;;;;1.63;1.20;;;8.90;98.20;;;;;;4995057;28;20568;-82
2022/01/04 13:07:12;;;;;;;1.63;1.20;;;8.90;98.20;;;;;;4985387;28;20524;-84
2022/01/04 13:09:39;;;;;;;1.70;1.30;;;9.00;98.20;;;;;;4995425;28;20469;-81
2022/01/04 13:12:08;;;;;;;1.70;1.30;;;9.00;98.20;;;;;;4990195;28;20598;-81